createdAt,value
2023-01-08T00:00:45.931Z,52.69
2023-01-08T00:01:45.927Z,52.37
2023-01-08T00:02:45.993Z,52.85
2023-01-08T00:03:46.038Z,51.88
2023-01-08T00:04:45.906Z,53.33
2023-01-08T00:05:45.899Z,53.01
2023-01-08T00:06:45.879Z,53.66
2023-01-08T00:07:45.893Z,53.98
2023-01-08T00:08:45.862Z,51.88
2023-01-08T00:09:45.852Z,51.40
2023-01-08T00:10:45.862Z,51.88
2023-01-08T00:11:45.948Z,52.69
2023-01-08T00:12:45.838Z,52.85
2023-01-08T00:13:45.861Z,53.33
2023-01-08T00:14:45.828Z,52.53
2023-01-08T00:15:45.831Z,52.85
2023-01-08T00:16:45.880Z,52.37
2023-01-08T00:17:45.813Z,52.21
2023-01-08T00:18:45.814Z,52.69
2023-01-08T00:19:45.804Z,52.85
2023-01-08T00:20:45.788Z,52.37
2023-01-08T00:21:45.779Z,53.33
2023-01-08T00:22:45.785Z,51.72
2023-01-08T00:23:45.774Z,51.24
2023-01-08T00:24:45.758Z,51.88
2023-01-08T00:25:45.787Z,52.37
2023-01-08T00:26:45.747Z,52.37
2023-01-08T00:27:45.839Z,52.69
2023-01-08T00:28:45.757Z,52.69
2023-01-08T00:29:45.721Z,51.88
2023-01-08T00:30:45.767Z,52.53
2023-01-08T00:31:45.750Z,52.21
2023-01-08T00:32:45.702Z,52.37
2023-01-08T00:33:45.700Z,52.05
2023-01-08T00:34:45.716Z,52.37
2023-01-08T00:35:45.708Z,52.37
2023-01-08T00:36:45.686Z,52.69
2023-01-08T00:37:45.670Z,51.72
2023-01-08T00:38:46.669Z,52.69
2023-01-08T00:39:46.644Z,52.53
2023-01-08T00:40:45.639Z,52.53
2023-01-08T00:41:45.659Z,54.14
2023-01-08T00:42:45.676Z,55.43
2023-01-08T00:43:45.722Z,52.85
2023-01-08T00:44:45.705Z,54.30
2023-01-08T00:45:45.686Z,53.01
2023-01-08T00:46:45.607Z,52.85
2023-01-08T00:47:45.626Z,52.21
2023-01-08T00:48:45.600Z,52.85
2023-01-08T00:49:45.672Z,52.05
2023-01-08T00:50:45.587Z,52.05
2023-01-08T00:51:45.590Z,51.88
2023-01-08T00:52:45.603Z,51.56
2023-01-08T00:53:45.570Z,51.08
2023-01-08T00:54:45.604Z,52.37
2023-01-08T00:55:45.612Z,52.37
2023-01-08T00:56:45.540Z,52.05
2023-01-08T00:57:45.548Z,51.88
2023-01-08T00:58:45.561Z,52.05
2023-01-08T00:59:45.513Z,51.88
2023-01-08T01:00:45.508Z,51.40
2023-01-08T01:01:45.653Z,51.24
2023-01-08T01:02:45.512Z,52.37
2023-01-08T01:03:45.556Z,51.72
2023-01-08T01:04:45.524Z,52.53
2023-01-08T01:05:45.487Z,51.88
2023-01-08T01:06:45.467Z,51.56
2023-01-08T01:07:45.507Z,50.76
2023-01-08T01:08:45.459Z,51.72
2023-01-08T01:09:45.596Z,51.88
2023-01-08T01:10:45.453Z,52.21
2023-01-08T01:11:45.440Z,52.37
2023-01-08T01:12:45.452Z,51.88
2023-01-08T01:13:45.440Z,51.88
2023-01-08T01:14:45.429Z,51.88
2023-01-08T01:15:45.520Z,52.53
2023-01-08T01:16:45.432Z,52.69
2023-01-08T01:17:45.421Z,52.37
2023-01-08T01:18:45.389Z,51.88
2023-01-08T01:19:45.400Z,52.37
2023-01-08T01:20:45.380Z,51.56
2023-01-08T01:21:45.376Z,51.56
2023-01-08T01:22:45.386Z,52.53
2023-01-08T01:23:45.376Z,51.56
2023-01-08T01:24:45.353Z,51.88
2023-01-08T01:25:45.946Z,52.21
2023-01-08T01:26:46.361Z,51.88
2023-01-08T01:27:45.339Z,53.17
2023-01-08T01:28:45.340Z,51.88
2023-01-08T01:29:45.329Z,51.72
2023-01-08T01:30:45.354Z,51.72
2023-01-08T01:31:45.394Z,52.69
2023-01-08T01:32:45.301Z,51.24
2023-01-08T01:33:45.312Z,50.60
2023-01-08T01:34:45.282Z,53.33
2023-01-08T01:35:45.296Z,52.37
2023-01-08T01:36:45.263Z,52.05
2023-01-08T01:37:45.263Z,51.24
2023-01-08T01:38:45.308Z,52.37
2023-01-08T01:39:45.251Z,52.69
2023-01-08T01:40:45.237Z,52.21
2023-01-08T01:41:46.256Z,51.72
2023-01-08T01:42:45.225Z,51.88
2023-01-08T01:43:45.230Z,51.72
2023-01-08T01:44:45.220Z,51.40
2023-01-08T01:45:45.221Z,53.66
2023-01-08T01:46:45.239Z,51.72
2023-01-08T01:47:45.303Z,51.88
2023-01-08T01:48:45.192Z,51.24
2023-01-08T01:49:45.200Z,51.88
2023-01-08T01:50:45.183Z,51.88
2023-01-08T01:51:45.164Z,51.72
2023-01-08T01:52:45.188Z,51.72
2023-01-08T01:53:45.152Z,51.56
2023-01-08T01:54:45.169Z,51.72
2023-01-08T01:55:45.172Z,52.05
2023-01-08T01:56:45.146Z,51.88
2023-01-08T01:57:46.129Z,51.56
2023-01-08T01:58:45.131Z,51.72
2023-01-08T01:59:45.142Z,51.24
2023-01-08T02:00:45.136Z,51.56
2023-01-08T02:01:45.234Z,52.37
2023-01-08T02:02:45.103Z,51.72
2023-01-08T02:03:45.231Z,51.72
2023-01-08T02:04:45.096Z,51.88
2023-01-08T02:05:45.072Z,51.88
2023-01-08T02:06:45.069Z,51.72
2023-01-08T02:07:45.086Z,51.72
2023-01-08T02:08:45.065Z,51.72
2023-01-08T02:09:45.046Z,51.08
2023-01-08T02:10:45.059Z,51.72
2023-01-08T02:11:45.047Z,51.24
2023-01-08T02:12:45.048Z,51.88
2023-01-08T02:13:45.025Z,51.88
2023-01-08T02:14:45.009Z,52.05
2023-01-08T02:15:45.014Z,51.88
2023-01-08T02:16:45.118Z,52.85
2023-01-08T02:17:45.007Z,52.05
2023-01-08T02:18:44.993Z,51.40
2023-01-08T02:19:45.103Z,51.88
2023-01-08T02:20:44.983Z,51.56
2023-01-08T02:21:44.976Z,51.56
2023-01-08T02:22:44.996Z,51.72
2023-01-08T02:23:44.957Z,51.56
2023-01-08T02:24:44.950Z,51.72
2023-01-08T02:25:44.954Z,51.72
2023-01-08T02:26:44.962Z,51.72
2023-01-08T02:27:44.937Z,51.40
2023-01-08T02:28:44.933Z,52.21
2023-01-08T02:29:44.923Z,52.37
2023-01-08T02:30:45.708Z,52.21
2023-01-08T02:31:44.949Z,52.69
2023-01-08T02:32:44.928Z,51.40
2023-01-08T02:33:44.900Z,51.88
2023-01-08T02:34:44.881Z,51.56
2023-01-08T02:35:44.985Z,51.24
2023-01-08T02:36:44.887Z,51.72
2023-01-08T02:37:44.865Z,51.88
2023-01-08T02:38:44.869Z,50.92
2023-01-08T02:39:44.848Z,51.24
2023-01-08T02:40:44.836Z,52.21
2023-01-08T02:41:44.845Z,52.21
2023-01-08T02:42:44.822Z,52.37
2023-01-08T02:43:44.840Z,52.21
2023-01-08T02:44:44.818Z,52.21
2023-01-08T02:45:44.844Z,51.72
2023-01-08T02:46:44.808Z,51.56
2023-01-08T02:47:44.806Z,51.88
2023-01-08T02:48:44.799Z,51.24
2023-01-08T02:49:44.784Z,51.88
2023-01-08T02:50:44.782Z,51.72
2023-01-08T02:51:44.870Z,51.72
2023-01-08T02:52:44.763Z,51.88
2023-01-08T02:53:44.805Z,51.72
2023-01-08T02:54:44.753Z,51.24
2023-01-08T02:55:44.728Z,51.08
2023-01-08T02:56:45.734Z,50.76
2023-01-08T02:57:44.710Z,52.21
2023-01-08T02:58:44.732Z,53.33
2023-01-08T02:59:44.719Z,53.01
2023-01-08T03:00:44.702Z,52.37
2023-01-08T03:01:44.820Z,52.21
2023-01-08T03:02:44.712Z,51.72
2023-01-08T03:03:44.686Z,51.40
2023-01-08T03:04:44.703Z,51.72
2023-01-08T03:05:44.718Z,51.72
2023-01-08T03:06:44.686Z,51.40
2023-01-08T03:07:44.754Z,51.56
2023-01-08T03:08:44.665Z,51.24
2023-01-08T03:09:44.685Z,51.56
2023-01-08T03:10:44.639Z,53.66
2023-01-08T03:11:44.629Z,51.08
2023-01-08T03:12:44.618Z,52.21
2023-01-08T03:13:44.609Z,52.05
2023-01-08T03:14:44.702Z,51.40
2023-01-08T03:15:44.623Z,51.72
2023-01-08T03:16:44.695Z,51.88
2023-01-08T03:17:44.614Z,51.88
2023-01-08T03:18:44.585Z,51.72
2023-01-08T03:19:44.579Z,51.24
2023-01-08T03:20:44.582Z,51.72
2023-01-08T03:21:44.590Z,52.37
2023-01-08T03:22:44.558Z,51.24
2023-01-08T03:23:44.764Z,51.08
2023-01-08T03:24:44.546Z,52.37
2023-01-08T03:25:44.544Z,52.85
2023-01-08T03:26:44.534Z,52.69
2023-01-08T03:27:44.543Z,55.75
2023-01-08T03:28:44.533Z,51.72
2023-01-08T03:29:44.517Z,51.40
2023-01-08T03:30:44.525Z,52.05
2023-01-08T03:31:44.513Z,52.05
2023-01-08T03:32:44.508Z,51.56
2023-01-08T03:33:44.483Z,51.40
2023-01-08T03:34:44.478Z,55.11
2023-01-08T03:35:44.477Z,52.37
2023-01-08T03:36:44.507Z,52.85
2023-01-08T03:37:44.457Z,51.40
2023-01-08T03:38:44.479Z,51.56
2023-01-08T03:39:44.530Z,52.37
2023-01-08T03:40:44.440Z,52.21
2023-01-08T03:41:44.444Z,52.05
2023-01-08T03:42:44.467Z,52.53
2023-01-08T03:43:44.418Z,51.88
2023-01-08T03:44:44.404Z,51.24
2023-01-08T03:45:44.492Z,51.40
2023-01-08T03:46:44.401Z,52.37
2023-01-08T03:47:44.413Z,52.05
2023-01-08T03:48:44.405Z,51.72
2023-01-08T03:49:44.384Z,51.72
2023-01-08T03:50:44.381Z,51.56
2023-01-08T03:51:44.376Z,51.08
2023-01-08T03:52:44.381Z,51.56
2023-01-08T03:53:45.350Z,51.88
2023-01-08T03:54:44.357Z,52.21
2023-01-08T03:55:44.426Z,51.72
2023-01-08T03:56:44.334Z,51.40
2023-01-08T03:57:44.351Z,51.72
2023-01-08T03:58:44.331Z,51.56
2023-01-08T03:59:44.308Z,51.40
2023-01-08T04:00:44.329Z,50.92
2023-01-08T04:01:44.486Z,51.24
2023-01-08T04:02:45.145Z,51.56
2023-01-08T04:03:44.328Z,51.72
2023-01-08T04:04:44.335Z,51.88
2023-01-08T04:05:44.282Z,52.53
2023-01-08T04:06:44.318Z,52.85
2023-01-08T04:07:44.270Z,51.40
2023-01-08T04:08:44.270Z,52.37
2023-01-08T04:09:44.279Z,51.72
2023-01-08T04:10:44.231Z,52.37
2023-01-08T04:11:44.344Z,52.37
2023-01-08T04:12:44.245Z,51.72
2023-01-08T04:13:44.234Z,51.88
2023-01-08T04:14:44.719Z,51.88
2023-01-08T04:15:44.254Z,51.24
2023-01-08T04:16:44.207Z,51.24
2023-01-08T04:17:44.257Z,52.37
2023-01-08T04:18:44.203Z,52.69
2023-01-08T04:19:44.201Z,51.72
2023-01-08T04:20:45.186Z,52.05
2023-01-08T04:21:44.167Z,52.37
2023-01-08T04:22:44.171Z,51.88
2023-01-08T04:23:44.197Z,52.05
2023-01-08T04:24:44.153Z,51.88
2023-01-08T04:25:44.143Z,51.56
2023-01-08T04:26:44.144Z,51.56
2023-01-08T04:27:44.264Z,52.21
2023-01-08T04:28:44.138Z,51.88
2023-01-08T04:29:44.138Z,51.24
2023-01-08T04:30:44.146Z,52.37
2023-01-08T04:31:44.099Z,52.53
2023-01-08T04:32:44.122Z,52.37
2023-01-08T04:33:44.081Z,52.21
2023-01-08T04:34:44.093Z,52.21
2023-01-08T04:35:44.120Z,52.05
2023-01-08T04:36:44.073Z,52.37
2023-01-08T04:37:44.097Z,51.40
2023-01-08T04:38:44.086Z,52.21
2023-01-08T04:39:44.085Z,51.88
2023-01-08T04:40:44.045Z,51.88
2023-01-08T04:41:44.045Z,51.88
2023-01-08T04:42:44.021Z,55.43
2023-01-08T04:43:44.135Z,54.95
2023-01-08T04:44:44.020Z,51.88
2023-01-08T04:45:44.022Z,52.37
2023-01-08T04:46:44.096Z,52.21
2023-01-08T04:47:44.029Z,52.21
2023-01-08T04:48:43.985Z,52.37
2023-01-08T04:49:44.982Z,52.21
2023-01-08T04:50:44.009Z,51.72
2023-01-08T04:51:43.959Z,51.88
2023-01-08T04:52:43.952Z,51.56
2023-01-08T04:53:43.981Z,53.33
2023-01-08T04:54:43.967Z,54.14
2023-01-08T04:55:43.984Z,54.62
2023-01-08T04:56:43.950Z,53.66
2023-01-08T04:57:43.926Z,53.50
2023-01-08T04:58:43.940Z,51.88
2023-01-08T04:59:44.022Z,52.37
2023-01-08T05:00:43.916Z,52.37
2023-01-08T05:01:44.132Z,52.37
2023-01-08T05:02:44.189Z,52.37
2023-01-08T05:03:43.881Z,52.05
2023-01-08T05:04:43.889Z,51.72
2023-01-08T05:05:43.914Z,52.37
2023-01-08T05:06:43.862Z,53.33
2023-01-08T05:07:43.868Z,52.05
2023-01-08T05:08:43.867Z,51.72
2023-01-08T05:09:43.844Z,51.72
2023-01-08T05:10:43.857Z,53.01
2023-01-08T05:11:43.855Z,53.82
2023-01-08T05:12:43.827Z,52.69
2023-01-08T05:13:43.837Z,52.21
2023-01-08T05:14:43.831Z,52.53
2023-01-08T05:15:44.004Z,53.17
2023-01-08T05:16:43.808Z,52.69
2023-01-08T05:17:43.825Z,52.85
2023-01-08T05:18:43.814Z,56.24
2023-01-08T05:19:43.786Z,52.37
2023-01-08T05:20:43.786Z,52.53
2023-01-08T05:21:43.779Z,53.50
2023-01-08T05:22:43.763Z,53.33
2023-01-08T05:23:43.763Z,52.85
2023-01-08T05:24:43.738Z,53.98
2023-01-08T05:25:43.722Z,53.01
2023-01-08T05:26:44.795Z,52.53
2023-01-08T05:27:43.726Z,52.37
2023-01-08T05:28:43.711Z,52.85
2023-01-08T05:29:43.728Z,53.01
2023-01-08T05:30:43.730Z,52.53
2023-01-08T05:31:43.804Z,52.37
2023-01-08T05:32:43.712Z,52.53
2023-01-08T05:33:43.683Z,53.33
2023-01-08T05:34:43.679Z,52.21
2023-01-08T05:35:43.688Z,53.17
2023-01-08T05:36:43.665Z,52.53
2023-01-08T05:37:43.679Z,52.21
2023-01-08T05:38:43.693Z,52.37
2023-01-08T05:39:43.630Z,51.56
2023-01-08T05:40:43.628Z,52.05
2023-01-08T05:41:43.661Z,51.40
2023-01-08T05:42:43.622Z,51.24
2023-01-08T05:43:43.610Z,51.24
2023-01-08T05:44:43.619Z,56.24
2023-01-08T05:45:43.609Z,54.46
2023-01-08T05:46:43.664Z,53.66
2023-01-08T05:47:43.715Z,54.30
2023-01-08T05:48:43.583Z,52.53
2023-01-08T05:49:43.579Z,53.17
2023-01-08T05:50:43.580Z,53.33
2023-01-08T05:51:43.568Z,52.69
2023-01-08T05:52:43.547Z,53.33
2023-01-08T05:53:43.570Z,53.50
2023-01-08T05:54:43.541Z,54.62
2023-01-08T05:55:43.521Z,53.82
2023-01-08T05:56:43.539Z,52.85
2023-01-08T05:57:43.528Z,53.17
2023-01-08T05:58:43.515Z,55.43
2023-01-08T05:59:43.523Z,54.95
2023-01-08T06:00:43.496Z,55.11
2023-01-08T06:01:43.562Z,54.46
2023-01-08T06:02:43.550Z,54.79
2023-01-08T06:03:43.595Z,54.95
2023-01-08T06:04:43.467Z,54.95
2023-01-08T06:05:43.487Z,54.95
2023-01-08T06:06:43.457Z,54.30
2023-01-08T06:07:43.467Z,53.66
2023-01-08T06:08:43.468Z,55.75
2023-01-08T06:09:43.432Z,53.98
2023-01-08T06:10:43.443Z,54.79
2023-01-08T06:11:43.439Z,54.62
2023-01-08T06:12:43.436Z,54.30
2023-01-08T06:13:43.469Z,54.30
2023-01-08T06:14:43.433Z,52.85
2023-01-08T06:15:43.452Z,53.17
2023-01-08T06:16:43.395Z,52.53
2023-01-08T06:17:43.410Z,53.82
2023-01-08T06:18:43.393Z,53.33
2023-01-08T06:19:43.471Z,53.50
2023-01-08T06:20:43.405Z,53.66
2023-01-08T06:21:43.351Z,53.33
2023-01-08T06:22:43.349Z,55.27
2023-01-08T06:23:43.378Z,55.75
2023-01-08T06:24:43.343Z,54.95
2023-01-08T06:25:43.318Z,53.98
2023-01-08T06:26:43.341Z,53.50
2023-01-08T06:27:43.320Z,53.33
2023-01-08T06:28:43.303Z,54.30
2023-01-08T06:29:43.328Z,54.14
2023-01-08T06:30:43.291Z,53.33
2023-01-08T06:31:43.452Z,53.82
2023-01-08T06:32:43.293Z,53.33
2023-01-08T06:33:43.292Z,53.98
2023-01-08T06:34:43.291Z,55.91
2023-01-08T06:35:43.279Z,56.40
2023-01-08T06:36:43.258Z,55.59
2023-01-08T06:37:43.275Z,54.30
2023-01-08T06:38:43.256Z,54.46
2023-01-08T06:39:43.248Z,53.82
2023-01-08T06:40:43.243Z,53.33
2023-01-08T06:41:43.239Z,54.14
2023-01-08T06:42:43.212Z,53.33
2023-01-08T06:43:43.203Z,52.85
2023-01-08T06:44:43.251Z,53.98
2023-01-08T06:45:43.230Z,55.91
2023-01-08T06:46:43.284Z,55.43
2023-01-08T06:47:43.195Z,55.91
2023-01-08T06:48:43.186Z,53.17
2023-01-08T06:49:43.212Z,53.50
2023-01-08T06:50:43.163Z,53.50
2023-01-08T06:51:43.148Z,56.24
2023-01-08T06:52:43.153Z,53.98
2023-01-08T06:53:43.136Z,56.24
2023-01-08T06:54:43.160Z,52.69
2023-01-08T06:55:43.142Z,52.53
2023-01-08T06:56:53.369Z,52.53
2023-01-08T06:57:45.129Z,55.43
2023-01-08T06:58:43.123Z,56.07
2023-01-08T06:59:43.107Z,58.01
2023-01-08T07:00:43.114Z,56.40
2023-01-08T07:01:43.205Z,59.94
2023-01-08T07:02:43.277Z,58.17
2023-01-08T07:03:43.200Z,59.46
2023-01-08T07:04:43.087Z,60.91
2023-01-08T07:05:43.095Z,53.82
2023-01-08T07:06:43.074Z,53.01
2023-01-08T07:07:43.144Z,54.95
2023-01-08T07:08:43.049Z,54.95
2023-01-08T07:09:43.050Z,55.27
2023-01-08T07:10:43.047Z,53.50
2023-01-08T07:11:43.033Z,54.30
2023-01-08T07:12:43.032Z,52.69
2023-01-08T07:13:43.001Z,53.50
2023-01-08T07:14:43.041Z,52.69
2023-01-08T07:15:43.179Z,52.21
2023-01-08T07:16:43.059Z,51.72
2023-01-08T07:17:43.015Z,54.62
2023-01-08T07:18:42.992Z,53.17
2023-01-08T07:19:42.968Z,53.01
2023-01-08T07:20:42.968Z,56.07
2023-01-08T07:21:42.971Z,59.14
2023-01-08T07:22:43.009Z,53.82
2023-01-08T07:23:43.072Z,55.27
2023-01-08T07:24:42.956Z,55.43
2023-01-08T07:25:42.938Z,56.56
2023-01-08T07:26:42.947Z,56.88
2023-01-08T07:27:42.994Z,54.14
2023-01-08T07:28:43.904Z,53.50
2023-01-08T07:29:42.915Z,52.69
2023-01-08T07:30:42.924Z,53.01
2023-01-08T07:31:42.956Z,53.50
2023-01-08T07:32:42.905Z,53.66
2023-01-08T07:33:42.911Z,60.75
2023-01-08T07:34:42.877Z,58.65
2023-01-08T07:35:42.884Z,54.46
2023-01-08T07:36:42.891Z,56.88
2023-01-08T07:37:42.856Z,55.59
2023-01-08T07:38:42.855Z,53.98
2023-01-08T07:39:42.953Z,53.17
2023-01-08T07:40:42.844Z,52.85
2023-01-08T07:41:42.851Z,57.85
2023-01-08T07:42:42.841Z,59.94
2023-01-08T07:43:42.855Z,54.46
2023-01-08T07:44:42.834Z,56.40
2023-01-08T07:45:42.829Z,51.56
2023-01-08T07:46:42.880Z,55.75
2023-01-08T07:47:42.807Z,56.56
2023-01-08T07:48:42.820Z,55.91
2023-01-08T07:49:42.781Z,55.91
2023-01-08T07:50:42.783Z,53.50
2023-01-08T07:51:42.792Z,55.11
2023-01-08T07:52:42.844Z,52.37
2023-01-08T07:53:42.781Z,52.37
2023-01-08T07:54:42.767Z,52.69
2023-01-08T07:55:42.833Z,58.97
2023-01-08T07:56:42.784Z,54.62
2023-01-08T07:57:42.731Z,54.62
2023-01-08T07:58:42.766Z,54.79
2023-01-08T07:59:42.736Z,52.69
2023-01-08T08:00:42.701Z,52.53
2023-01-08T08:01:42.819Z,53.17
2023-01-08T08:02:42.797Z,53.17
2023-01-08T08:03:42.767Z,54.46
2023-01-08T08:04:42.718Z,52.85
2023-01-08T08:05:42.758Z,55.59
2023-01-08T08:06:42.703Z,54.46
2023-01-08T08:07:42.684Z,54.30
2023-01-08T08:08:42.658Z,54.79
2023-01-08T08:09:42.669Z,63.97
2023-01-08T08:10:42.680Z,55.91
2023-01-08T08:11:42.647Z,53.01
2023-01-08T08:12:42.631Z,62.68
2023-01-08T08:13:42.693Z,53.01
2023-01-08T08:14:42.633Z,52.85
2023-01-08T08:15:42.618Z,53.01
2023-01-08T08:16:42.638Z,57.69
2023-01-08T08:17:42.632Z,56.24
2023-01-08T08:18:43.178Z,53.01
2023-01-08T08:19:42.593Z,55.59
2023-01-08T08:20:42.574Z,55.75
2023-01-08T08:21:42.589Z,57.36
2023-01-08T08:22:42.564Z,58.01
2023-01-08T08:23:42.581Z,53.01
2023-01-08T08:24:42.563Z,56.07
2023-01-08T08:25:42.559Z,56.40
2023-01-08T08:26:42.556Z,54.95
2023-01-08T08:27:42.633Z,53.33
2023-01-08T08:28:42.539Z,54.79
2023-01-08T08:29:42.551Z,54.79
2023-01-08T08:30:42.888Z,63.00
2023-01-08T08:31:43.548Z,60.91
2023-01-08T08:32:42.551Z,57.69
2023-01-08T08:33:42.509Z,57.69
2023-01-08T08:34:42.506Z,58.01
2023-01-08T08:35:42.574Z,59.94
2023-01-08T08:36:42.565Z,57.20
2023-01-08T08:37:42.487Z,57.85
2023-01-08T08:38:42.514Z,53.17
2023-01-08T08:39:42.486Z,54.79
2023-01-08T08:40:42.458Z,56.24
2023-01-08T08:41:42.453Z,53.98
2023-01-08T08:42:42.495Z,58.33
2023-01-08T08:43:42.548Z,53.98
2023-01-08T08:44:43.071Z,57.69
2023-01-08T08:45:43.437Z,58.65
2023-01-08T08:46:42.479Z,54.46
2023-01-08T08:47:42.418Z,54.30
2023-01-08T08:48:42.435Z,53.66
2023-01-08T08:49:42.431Z,54.62
2023-01-08T08:50:42.382Z,54.30
2023-01-08T08:51:42.392Z,54.46
2023-01-08T08:52:42.378Z,60.91
2023-01-08T08:53:42.374Z,60.42
2023-01-08T08:54:42.384Z,62.52
2023-01-08T08:55:42.350Z,59.14
2023-01-08T08:56:42.343Z,66.87
2023-01-08T08:57:42.360Z,59.78
2023-01-08T08:58:42.340Z,61.23
2023-01-08T08:59:42.432Z,58.81
2023-01-08T09:00:42.400Z,62.04
2023-01-08T09:01:42.408Z,54.46
2023-01-08T09:02:42.581Z,61.87
2023-01-08T09:03:42.334Z,54.14
2023-01-08T09:04:42.291Z,55.27
2023-01-08T09:05:42.310Z,55.59
2023-01-08T09:06:42.341Z,58.01
2023-01-08T09:07:42.340Z,63.16
2023-01-08T09:08:42.376Z,55.91
2023-01-08T09:09:42.351Z,66.87
2023-01-08T09:10:42.537Z,53.33
2023-01-08T09:11:42.326Z,53.50
2023-01-08T09:12:42.311Z,63.16
2023-01-08T09:13:42.329Z,57.52
2023-01-08T09:14:42.631Z,54.79
2023-01-08T09:15:42.346Z,56.40
2023-01-08T09:16:42.329Z,53.82
2023-01-08T09:17:43.123Z,54.46
2023-01-08T09:18:42.261Z,58.17
2023-01-08T09:19:42.285Z,64.13
2023-01-08T09:20:42.389Z,54.30
2023-01-08T09:21:42.252Z,53.50
2023-01-08T09:22:42.369Z,53.17
2023-01-08T09:23:42.267Z,57.36
2023-01-08T09:24:42.246Z,58.49
2023-01-08T09:25:42.271Z,54.95
2023-01-08T09:26:42.269Z,56.72
2023-01-08T09:27:42.240Z,54.14
2023-01-08T09:28:42.161Z,53.17
2023-01-08T09:29:42.259Z,54.95
2023-01-08T09:30:42.350Z,59.94
2023-01-08T09:31:42.414Z,59.62
2023-01-08T09:32:42.123Z,54.79
2023-01-08T09:33:42.125Z,55.75
2023-01-08T09:34:42.097Z,53.82
2023-01-08T09:35:42.169Z,58.01
2023-01-08T09:36:42.159Z,55.11
2023-01-08T09:37:42.179Z,58.65
2023-01-08T09:38:42.137Z,54.95
2023-01-08T09:39:42.602Z,62.20
2023-01-08T09:40:43.055Z,56.40
2023-01-08T09:41:42.190Z,53.98
2023-01-08T09:42:42.056Z,53.82
2023-01-08T09:43:42.104Z,55.11
2023-01-08T09:44:42.231Z,55.75
2023-01-08T09:45:42.067Z,56.72
2023-01-08T09:46:42.155Z,57.52
2023-01-08T09:47:42.106Z,55.43
2023-01-08T09:48:42.028Z,62.68
2023-01-08T09:49:42.015Z,58.97
2023-01-08T09:50:42.007Z,59.78
2023-01-08T09:51:41.999Z,59.46
2023-01-08T09:52:43.698Z,57.04
2023-01-08T09:53:42.990Z,64.13
2023-01-08T09:54:41.954Z,57.36
2023-01-08T09:55:41.949Z,53.82
2023-01-08T09:56:41.959Z,58.65
2023-01-08T09:57:41.946Z,56.07
2023-01-08T09:58:41.925Z,56.72
2023-01-08T09:59:41.962Z,55.27
2023-01-08T10:00:41.963Z,57.85
2023-01-08T10:01:42.055Z,53.66
2023-01-08T10:02:42.022Z,53.66
2023-01-08T10:03:41.984Z,64.13
2023-01-08T10:04:41.889Z,54.14
2023-01-08T10:05:41.894Z,58.97
2023-01-08T10:06:41.927Z,53.33
2023-01-08T10:07:41.886Z,54.95
2023-01-08T10:08:41.861Z,55.11
2023-01-08T10:09:42.622Z,58.81
2023-01-08T10:10:41.844Z,55.75
2023-01-08T10:11:41.841Z,54.46
2023-01-08T10:12:42.837Z,66.55
2023-01-08T10:13:41.825Z,61.87
2023-01-08T10:14:41.851Z,58.97
2023-01-08T10:15:41.820Z,57.04
2023-01-08T10:16:41.813Z,56.07
2023-01-08T10:17:41.826Z,54.14
2023-01-08T10:18:41.824Z,56.56
2023-01-08T10:19:41.879Z,55.75
2023-01-08T10:20:42.629Z,53.66
2023-01-08T10:21:41.810Z,56.07
2023-01-08T10:22:41.784Z,62.36
2023-01-08T10:23:41.770Z,59.14
2023-01-08T10:24:41.777Z,55.43
2023-01-08T10:25:41.743Z,61.07
2023-01-08T10:26:41.747Z,58.65
2023-01-08T10:27:41.752Z,53.98
2023-01-08T10:28:41.745Z,53.98
2023-01-08T10:29:41.722Z,53.82
2023-01-08T10:30:41.740Z,53.33
2023-01-08T10:31:41.737Z,53.98
2023-01-08T10:32:41.702Z,60.59
2023-01-08T10:33:41.775Z,54.46
2023-01-08T10:34:41.682Z,58.49
2023-01-08T10:35:42.781Z,55.43
2023-01-08T10:36:41.719Z,58.17
2023-01-08T10:37:41.685Z,57.04
2023-01-08T10:38:41.695Z,61.87
2023-01-08T10:39:41.664Z,58.97
2023-01-08T10:40:41.676Z,58.81
2023-01-08T10:41:41.675Z,54.79
2023-01-08T10:42:41.653Z,60.59
2023-01-08T10:43:41.657Z,66.06
2023-01-08T10:44:41.651Z,61.55
2023-01-08T10:45:41.697Z,61.39
2023-01-08T10:46:41.632Z,62.20
2023-01-08T10:47:41.606Z,57.20
2023-01-08T10:48:41.648Z,60.42
2023-01-08T10:49:41.599Z,62.36
2023-01-08T10:50:41.611Z,54.79
2023-01-08T10:51:41.607Z,56.24
2023-01-08T10:52:41.585Z,58.01
2023-01-08T10:53:41.590Z,65.74
2023-01-08T10:54:41.577Z,59.46
2023-01-08T10:55:41.568Z,59.62
2023-01-08T10:56:41.556Z,64.13
2023-01-08T10:57:41.569Z,59.94
2023-01-08T10:58:41.538Z,57.36
2023-01-08T10:59:41.552Z,59.14
2023-01-08T11:00:41.606Z,58.65
2023-01-08T11:01:41.755Z,59.62
2023-01-08T11:02:41.551Z,55.27
2023-01-08T11:03:41.502Z,65.74
2023-01-08T11:04:41.520Z,53.33
2023-01-08T11:05:41.518Z,59.94
2023-01-08T11:06:41.494Z,56.24
2023-01-08T11:07:41.514Z,56.24
2023-01-08T11:08:41.461Z,57.52
2023-01-08T11:09:41.461Z,58.01
2023-01-08T11:10:41.510Z,53.82
2023-01-08T11:11:41.452Z,54.46
2023-01-08T11:12:41.452Z,60.75
2023-01-08T11:13:41.450Z,57.20
2023-01-08T11:14:41.423Z,58.49
2023-01-08T11:15:41.439Z,58.49
2023-01-08T11:16:41.509Z,63.16
2023-01-08T11:17:41.433Z,54.79
2023-01-08T11:18:41.406Z,57.20
2023-01-08T11:19:41.430Z,55.75
2023-01-08T11:20:41.388Z,58.65
2023-01-08T11:21:41.398Z,57.36
2023-01-08T11:22:41.385Z,61.55
2023-01-08T11:23:41.364Z,58.65
2023-01-08T11:24:41.365Z,61.55
2023-01-08T11:25:41.394Z,57.04
2023-01-08T11:26:41.376Z,58.01
2023-01-08T11:27:41.338Z,63.81
2023-01-08T11:28:41.342Z,55.91
2023-01-08T11:29:41.326Z,61.23
2023-01-08T11:30:41.346Z,59.62
2023-01-08T11:31:41.336Z,55.43
2023-01-08T11:32:41.318Z,56.88
2023-01-08T11:33:41.312Z,58.97
2023-01-08T11:34:41.314Z,61.39
2023-01-08T11:35:41.295Z,64.78
2023-01-08T11:36:41.276Z,60.10
2023-01-08T11:37:41.321Z,60.91
2023-01-08T11:38:41.271Z,59.30
2023-01-08T11:39:41.261Z,54.79
2023-01-08T11:40:41.253Z,61.07
2023-01-08T11:41:41.249Z,56.88
2023-01-08T11:42:41.257Z,65.10
2023-01-08T11:43:41.230Z,55.91
2023-01-08T11:44:41.253Z,59.62
2023-01-08T11:45:41.241Z,57.69
2023-01-08T11:46:41.222Z,63.65
2023-01-08T11:47:41.190Z,55.59
2023-01-08T11:48:41.214Z,60.26
2023-01-08T11:49:41.283Z,60.42
2023-01-08T11:50:41.167Z,63.97
2023-01-08T11:51:41.185Z,63.49
2023-01-08T11:52:41.209Z,55.91
2023-01-08T11:53:41.173Z,58.49
2023-01-08T11:54:41.214Z,65.10
2023-01-08T11:55:41.186Z,65.58
2023-01-08T11:56:41.175Z,57.85
2023-01-08T11:57:41.135Z,65.58
2023-01-08T11:58:41.117Z,65.74
2023-01-08T11:59:41.143Z,56.07
2023-01-08T12:00:41.119Z,58.33
2023-01-08T12:01:41.319Z,63.49
2023-01-08T12:02:41.688Z,61.55
2023-01-08T12:03:41.152Z,56.72
2023-01-08T12:04:41.666Z,59.94
2023-01-08T12:05:41.090Z,55.27
2023-01-08T12:06:41.074Z,59.62
2023-01-08T12:07:41.080Z,58.65
2023-01-08T12:08:41.074Z,67.03
2023-01-08T12:09:41.072Z,65.10
2023-01-08T12:10:41.040Z,57.52
2023-01-08T12:11:41.053Z,57.69
2023-01-08T12:12:41.630Z,56.40
2023-01-08T12:13:41.022Z,65.26
2023-01-08T12:14:41.057Z,64.78
2023-01-08T12:15:41.035Z,64.29
2023-01-08T12:16:41.031Z,59.30
2023-01-08T12:17:41.008Z,58.81
2023-01-08T12:18:41.004Z,55.91
2023-01-08T12:19:40.994Z,54.79
2023-01-08T12:20:40.987Z,54.30
2023-01-08T12:21:40.999Z,60.91
2023-01-08T12:22:40.971Z,59.14
2023-01-08T12:23:40.976Z,60.26
2023-01-08T12:24:40.970Z,60.26
2023-01-08T12:25:40.948Z,65.58
2023-01-08T12:26:40.960Z,61.55
2023-01-08T12:27:56.524Z,58.97
2023-01-08T12:28:43.079Z,63.97
2023-01-08T12:29:40.951Z,58.01
2023-01-08T12:30:40.932Z,59.94
2023-01-08T12:31:44.115Z,59.14
2023-01-08T12:32:40.963Z,56.72
2023-01-08T12:33:40.908Z,57.69
2023-01-08T12:34:40.921Z,60.75
2023-01-08T12:35:40.892Z,56.72
2023-01-08T12:36:40.879Z,59.14
2023-01-08T12:37:40.886Z,53.66
2023-01-08T12:38:40.875Z,53.82
2023-01-08T12:39:40.873Z,56.40
2023-01-08T12:40:40.891Z,57.52
2023-01-08T12:41:40.863Z,58.49
2023-01-08T12:42:42.695Z,60.26
2023-01-08T12:43:41.848Z,56.88
2023-01-08T12:44:40.822Z,56.07
2023-01-08T12:45:40.850Z,54.95
2023-01-08T12:46:40.908Z,65.74
2023-01-08T12:47:41.107Z,56.72
2023-01-08T12:48:40.807Z,61.07
2023-01-08T12:49:40.820Z,59.14
2023-01-08T12:50:40.792Z,57.69
2023-01-08T12:51:40.771Z,58.97
2023-01-08T12:52:40.784Z,60.10